Terminal Aerodrome Forecast
Issued by NWS

Home | Current Version | Previous Version | Text Only | Print | Product List | Glossary On
Versions: 1 2 3 4 5 6 7 8 9 10 11 12 13 14 15 16 17 18
000
FTUS45 KABQ 302344
TAFLVS
TAF
KLVS 302344Z 3100/3124 16010KT P6SM VCTS BKN050CB OVC090
      TEMPO 3100/3103 VRB15G25KT 4SM TSRA OVC035CB
     FM310400 14008KT 5SM BR VCSH SCT015 OVC030
     FM311000 05006KT 3SM BR OVC012
     FM311600 19008KT P6SM SCT015 BKN120
     FM312100 19011KT P6SM VCTS BKN050CB=

USA.gov is the U.S. government's official web portal to all federal, state and local government web resources and services.